sensor_id;sensor_type;location;lat;lon;timestamp;P1;durP1;ratioP1;P2;durP2;ratioP2
53654;SDS011;39558;52.028;8.536;2023-12-04T00:01:51;8.32;;;4.47;;
53654;SDS011;39558;52.028;8.536;2023-12-04T00:04:17;8.48;;;4.57;;
53654;SDS011;39558;52.028;8.536;2023-12-04T00:06:43;8.25;;;3.88;;
53654;SDS011;39558;52.028;8.536;2023-12-04T00:09:09;7.43;;;4.25;;
53654;SDS011;39558;52.028;8.536;2023-12-04T00:11:35;6.43;;;3.80;;
53654;SDS011;39558;52.028;8.536;2023-12-04T00:14:01;6.88;;;4.15;;
53654;SDS011;39558;52.028;8.536;2023-12-04T00:16:27;7.95;;;3.90;;
53654;SDS011;39558;52.028;8.536;2023-12-04T00:18:52;7.25;;;4.20;;
53654;SDS011;39558;52.028;8.536;2023-12-04T00:21:18;5.38;;;3.67;;
53654;SDS011;39558;52.028;8.536;2023-12-04T00:23:44;7.63;;;4.30;;
53654;SDS011;39558;52.028;8.536;2023-12-04T00:26:11;6.97;;;4.10;;
53654;SDS011;39558;52.028;8.536;2023-12-04T00:28:37;7.28;;;4.35;;
53654;SDS011;39558;52.028;8.536;2023-12-04T00:31:03;6.60;;;4.00;;
53654;SDS011;39558;52.028;8.536;2023-12-04T00:33:29;6.93;;;4.20;;
53654;SDS011;39558;52.028;8.536;2023-12-04T00:35:56;7.38;;;4.60;;
53654;SDS011;39558;52.028;8.536;2023-12-04T00:38:22;6.97;;;4.28;;
53654;SDS011;39558;52.028;8.536;2023-12-04T00:40:48;6.53;;;4.00;;
53654;SDS011;39558;52.028;8.536;2023-12-04T00:43:14;6.40;;;3.90;;
53654;SDS011;39558;52.028;8.536;2023-12-04T00:45:40;7.88;;;4.35;;
53654;SDS011;39558;52.028;8.536;2023-12-04T00:48:06;6.75;;;4.07;;
53654;SDS011;39558;52.028;8.536;2023-12-04T00:50:31;8.75;;;4.60;;
53654;SDS011;39558;52.028;8.536;2023-12-04T00:52:57;7.20;;;4.03;;
53654;SDS011;39558;52.028;8.536;2023-12-04T00:55:23;7.80;;;4.55;;
53654;SDS011;39558;52.028;8.536;2023-12-04T00:57:49;7.60;;;4.53;;
53654;SDS011;39558;52.028;8.536;2023-12-04T01:00:15;7.80;;;4.50;;
53654;SDS011;39558;52.028;8.536;2023-12-04T01:02:41;7.07;;;4.50;;
53654;SDS011;39558;52.028;8.536;2023-12-04T01:05:07;10.05;;;5.20;;
53654;SDS011;39558;52.028;8.536;2023-12-04T01:07:33;7.20;;;4.28;;
53654;SDS011;39558;52.028;8.536;2023-12-04T01:09:59;7.15;;;4.30;;
53654;SDS011;39558;52.028;8.536;2023-12-04T01:12:25;6.30;;;4.05;;
53654;SDS011;39558;52.028;8.536;2023-12-04T01:14:51;6.85;;;4.38;;
53654;SDS011;39558;52.028;8.536;2023-12-04T01:17:17;7.53;;;4.15;;
53654;SDS011;39558;52.028;8.536;2023-12-04T01:19:44;8.25;;;5.07;;
53654;SDS011;39558;52.028;8.536;2023-12-04T01:22:09;6.40;;;3.67;;
53654;SDS011;39558;52.028;8.536;2023-12-04T01:24:35;7.28;;;4.20;;
53654;SDS011;39558;52.028;8.536;2023-12-04T01:27:01;6.85;;;4.53;;
53654;SDS011;39558;52.028;8.536;2023-12-04T01:29:27;7.03;;;5.00;;
53654;SDS011;39558;52.028;8.536;2023-12-04T01:31:54;6.47;;;3.92;;
53654;SDS011;39558;52.028;8.536;2023-12-04T01:34:19;6.60;;;4.40;;
53654;SDS011;39558;52.028;8.536;2023-12-04T01:36:45;8.30;;;4.78;;
53654;SDS011;39558;52.028;8.536;2023-12-04T01:39:11;7.78;;;4.43;;
53654;SDS011;39558;52.028;8.536;2023-12-04T01:41:37;7.68;;;4.32;;
53654;SDS011;39558;52.028;8.536;2023-12-04T01:44:04;7.50;;;4.50;;
53654;SDS011;39558;52.028;8.536;2023-12-04T01:46:30;6.53;;;3.50;;
53654;SDS011;39558;52.028;8.536;2023-12-04T01:48:56;5.95;;;3.72;;
53654;SDS011;39558;52.028;8.536;2023-12-04T01:51:21;6.50;;;4.32;;
53654;SDS011;39558;52.028;8.536;2023-12-04T01:53:48;8.68;;;4.97;;
53654;SDS011;39558;52.028;8.536;2023-12-04T01:56:14;6.38;;;3.85;;
53654;SDS011;39558;52.028;8.536;2023-12-04T01:58:40;7.68;;;4.60;;
53654;SDS011;39558;52.028;8.536;2023-12-04T02:01:06;7.50;;;4.75;;
53654;SDS011;39558;52.028;8.536;2023-12-04T02:03:32;8.85;;;5.07;;
53654;SDS011;39558;52.028;8.536;2023-12-04T02:05:58;7.95;;;4.75;;
53654;SDS011;39558;52.028;8.536;2023-12-04T02:08:27;7.82;;;4.45;;
53654;SDS011;39558;52.028;8.536;2023-12-04T02:10:53;8.27;;;4.15;;
53654;SDS011;39558;52.028;8.536;2023-12-04T02:13:19;6.85;;;4.45;;
53654;SDS011;39558;52.028;8.536;2023-12-04T02:15:45;7.18;;;4.10;;
53654;SDS011;39558;52.028;8.536;2023-12-04T02:18:12;7.72;;;4.38;;
53654;SDS011;39558;52.028;8.536;2023-12-04T02:20:38;6.65;;;3.80;;
53654;SDS011;39558;52.028;8.536;2023-12-04T02:23:04;7.50;;;4.13;;
53654;SDS011;39558;52.028;8.536;2023-12-04T02:25:30;7.22;;;4.68;;
53654;SDS011;39558;52.028;8.536;2023-12-04T02:27:58;6.35;;;3.90;;
53654;SDS011;39558;52.028;8.536;2023-12-04T02:30:25;6.57;;;4.05;;
53654;SDS011;39558;52.028;8.536;2023-12-04T02:32:51;7.05;;;4.28;;
53654;SDS011;39558;52.028;8.536;2023-12-04T02:35:22;6.60;;;4.63;;
53654;SDS011;39558;52.028;8.536;2023-12-04T02:37:50;6.57;;;4.45;;
53654;SDS011;39558;52.028;8.536;2023-12-04T02:40:16;8.00;;;4.63;;
53654;SDS011;39558;52.028;8.536;2023-12-04T02:42:42;7.05;;;4.35;;
53654;SDS011;39558;52.028;8.536;2023-12-04T02:45:08;6.95;;;4.38;;
53654;SDS011;39558;52.028;8.536;2023-12-04T02:47:34;7.53;;;4.30;;
53654;SDS011;39558;52.028;8.536;2023-12-04T02:50:00;6.28;;;4.13;;
53654;SDS011;39558;52.028;8.536;2023-12-04T02:52:26;6.47;;;4.00;;
53654;SDS011;39558;52.028;8.536;2023-12-04T02:54:52;6.07;;;3.92;;
53654;SDS011;39558;52.028;8.536;2023-12-04T02:57:18;6.55;;;4.10;;
53654;SDS011;39558;52.028;8.536;2023-12-04T02:59:43;5.45;;;3.78;;
53654;SDS011;39558;52.028;8.536;2023-12-04T03:02:09;6.97;;;4.20;;
53654;SDS011;39558;52.028;8.536;2023-12-04T03:04:35;8.50;;;4.70;;
53654;SDS011;39558;52.028;8.536;2023-12-04T03:07:01;6.40;;;4.28;;
53654;SDS011;39558;52.028;8.536;2023-12-04T03:09:27;6.20;;;3.92;;
53654;SDS011;39558;52.028;8.536;2023-12-04T03:11:53;6.32;;;4.28;;
53654;SDS011;39558;52.028;8.536;2023-12-04T03:14:19;6.53;;;4.32;;
53654;SDS011;39558;52.028;8.536;2023-12-04T03:16:44;6.47;;;4.25;;
53654;SDS011;39558;52.028;8.536;2023-12-04T03:19:10;6.82;;;4.10;;
53654;SDS011;39558;52.028;8.536;2023-12-04T03:21:36;7.97;;;4.35;;
53654;SDS011;39558;52.028;8.536;2023-12-04T03:24:02;5.95;;;3.88;;
53654;SDS011;39558;52.028;8.536;2023-12-04T03:26:28;9.93;;;4.43;;
53654;SDS011;39558;52.028;8.536;2023-12-04T03:28:54;7.43;;;4.13;;
53654;SDS011;39558;52.028;8.536;2023-12-04T03:31:21;6.03;;;4.05;;
53654;SDS011;39558;52.028;8.536;2023-12-04T03:33:46;6.47;;;4.18;;
53654;SDS011;39558;52.028;8.536;2023-12-04T03:36:12;6.65;;;4.45;;
53654;SDS011;39558;52.028;8.536;2023-12-04T03:38:38;6.82;;;3.95;;
53654;SDS011;39558;52.028;8.536;2023-12-04T03:41:04;6.47;;;4.15;;
53654;SDS011;39558;52.028;8.536;2023-12-04T03:43:30;6.53;;;3.78;;
53654;SDS011;39558;52.028;8.536;2023-12-04T03:45:56;6.43;;;3.67;;
53654;SDS011;39558;52.028;8.536;2023-12-04T03:48:22;6.93;;;4.47;;
53654;SDS011;39558;52.028;8.536;2023-12-04T03:50:48;6.82;;;4.43;;
53654;SDS011;39558;52.028;8.536;2023-12-04T03:53:14;5.47;;;3.72;;
53654;SDS011;39558;52.028;8.536;2023-12-04T03:55:39;6.47;;;4.35;;
53654;SDS011;39558;52.028;8.536;2023-12-04T03:58:05;5.60;;;3.65;;
53654;SDS011;39558;52.028;8.536;2023-12-04T04:00:31;7.63;;;3.92;;
53654;SDS011;39558;52.028;8.536;2023-12-04T04:02:57;6.57;;;3.80;;
53654;SDS011;39558;52.028;8.536;2023-12-04T04:05:23;7.88;;;4.72;;
53654;SDS011;39558;52.028;8.536;2023-12-04T04:07:49;6.18;;;3.78;;
53654;SDS011;39558;52.028;8.536;2023-12-04T04:10:15;6.90;;;3.70;;
53654;SDS011;39558;52.028;8.536;2023-12-04T04:12:41;7.10;;;4.07;;
53654;SDS011;39558;52.028;8.536;2023-12-04T04:15:06;5.93;;;3.70;;
53654;SDS011;39558;52.028;8.536;2023-12-04T04:17:32;6.25;;;3.65;;
53654;SDS011;39558;52.028;8.536;2023-12-04T04:19:58;6.60;;;4.13;;
53654;SDS011;39558;52.028;8.536;2023-12-04T04:22:25;5.38;;;3.70;;
53654;SDS011;39558;52.028;8.536;2023-12-04T04:24:50;5.32;;;3.53;;
53654;SDS011;39558;52.028;8.536;2023-12-04T04:27:16;5.18;;;3.20;;
53654;SDS011;39558;52.028;8.536;2023-12-04T04:29:42;6.15;;;4.35;;
53654;SDS011;39558;52.028;8.536;2023-12-04T04:32:08;6.75;;;3.42;;
53654;SDS011;39558;52.028;8.536;2023-12-04T04:34:34;6.00;;;3.80;;
53654;SDS011;39558;52.028;8.536;2023-12-04T04:37:00;6.30;;;4.13;;
53654;SDS011;39558;52.028;8.536;2023-12-04T04:39:26;5.93;;;3.83;;
53654;SDS011;39558;52.028;8.536;2023-12-04T04:41:51;5.57;;;3.53;;
53654;SDS011;39558;52.028;8.536;2023-12-04T04:44:17;7.07;;;3.88;;
53654;SDS011;39558;52.028;8.536;2023-12-04T04:46:43;6.45;;;3.95;;
53654;SDS011;39558;52.028;8.536;2023-12-04T04:49:09;6.15;;;3.45;;
53654;SDS011;39558;52.028;8.536;2023-12-04T04:51:35;5.82;;;3.70;;
53654;SDS011;39558;52.028;8.536;2023-12-04T04:54:01;8.63;;;3.75;;
53654;SDS011;39558;52.028;8.536;2023-12-04T04:56:27;6.30;;;3.65;;
53654;SDS011;39558;52.028;8.536;2023-12-04T04:58:53;5.30;;;3.50;;
53654;SDS011;39558;52.028;8.536;2023-12-04T05:01:19;6.40;;;3.65;;
53654;SDS011;39558;52.028;8.536;2023-12-04T05:03:45;5.85;;;3.50;;
53654;SDS011;39558;52.028;8.536;2023-12-04T05:06:11;6.60;;;4.00;;
53654;SDS011;39558;52.028;8.536;2023-12-04T05:08:37;5.80;;;4.07;;
53654;SDS011;39558;52.028;8.536;2023-12-04T05:11:03;6.25;;;4.05;;
53654;SDS011;39558;52.028;8.536;2023-12-04T05:13:29;5.30;;;3.50;;
53654;SDS011;39558;52.028;8.536;2023-12-04T05:15:55;5.97;;;3.85;;
53654;SDS011;39558;52.028;8.536;2023-12-04T05:18:21;6.70;;;4.40;;
53654;SDS011;39558;52.028;8.536;2023-12-04T05:20:47;5.72;;;3.53;;
53654;SDS011;39558;52.028;8.536;2023-12-04T05:23:12;5.75;;;3.72;;
53654;SDS011;39558;52.028;8.536;2023-12-04T05:25:38;6.78;;;3.78;;
53654;SDS011;39558;52.028;8.536;2023-12-04T05:28:04;7.28;;;5.10;;
53654;SDS011;39558;52.028;8.536;2023-12-04T05:30:30;7.43;;;4.10;;
53654;SDS011;39558;52.028;8.536;2023-12-04T05:32:56;6.70;;;4.10;;
53654;SDS011;39558;52.028;8.536;2023-12-04T05:35:22;6.80;;;3.92;;
53654;SDS011;39558;52.028;8.536;2023-12-04T05:37:48;5.72;;;3.88;;
53654;SDS011;39558;52.028;8.536;2023-12-04T05:40:14;5.50;;;3.72;;
53654;SDS011;39558;52.028;8.536;2023-12-04T05:42:40;5.28;;;3.72;;
53654;SDS011;39558;52.028;8.536;2023-12-04T05:45:06;5.30;;;3.90;;
53654;SDS011;39558;52.028;8.536;2023-12-04T05:47:33;5.95;;;3.53;;
53654;SDS011;39558;52.028;8.536;2023-12-04T05:49:59;7.63;;;4.70;;
53654;SDS011;39558;52.028;8.536;2023-12-04T05:52:25;5.18;;;3.60;;
53654;SDS011;39558;52.028;8.536;2023-12-04T05:54:51;6.30;;;4.28;;
53654;SDS011;39558;52.028;8.536;2023-12-04T05:57:17;5.30;;;3.45;;
53654;SDS011;39558;52.028;8.536;2023-12-04T05:59:43;5.63;;;3.83;;
53654;SDS011;39558;52.028;8.536;2023-12-04T06:02:09;7.10;;;4.25;;
53654;SDS011;39558;52.028;8.536;2023-12-04T06:04:35;6.20;;;3.88;;
53654;SDS011;39558;52.028;8.536;2023-12-04T06:07:01;7.15;;;4.57;;
53654;SDS011;39558;52.028;8.536;2023-12-04T06:09:26;6.15;;;4.10;;
53654;SDS011;39558;52.028;8.536;2023-12-04T06:11:52;5.00;;;3.40;;
53654;SDS011;39558;52.028;8.536;2023-12-04T06:14:18;6.60;;;3.97;;
53654;SDS011;39558;52.028;8.536;2023-12-04T06:16:44;5.45;;;3.67;;
53654;SDS011;39558;52.028;8.536;2023-12-04T06:19:10;6.38;;;4.10;;
53654;SDS011;39558;52.028;8.536;2023-12-04T06:21:36;7.28;;;4.22;;
53654;SDS011;39558;52.028;8.536;2023-12-04T06:24:02;6.20;;;3.40;;
53654;SDS011;39558;52.028;8.536;2023-12-04T06:26:29;6.25;;;4.18;;
53654;SDS011;39558;52.028;8.536;2023-12-04T06:28:55;5.90;;;3.90;;
53654;SDS011;39558;52.028;8.536;2023-12-04T06:31:21;6.95;;;3.92;;
53654;SDS011;39558;52.028;8.536;2023-12-04T06:33:47;6.88;;;4.07;;
53654;SDS011;39558;52.028;8.536;2023-12-04T06:36:13;6.65;;;4.18;;
53654;SDS011;39558;52.028;8.536;2023-12-04T06:38:39;5.95;;;3.72;;
53654;SDS011;39558;52.028;8.536;2023-12-04T06:41:06;6.32;;;4.00;;
53654;SDS011;39558;52.028;8.536;2023-12-04T06:43:32;5.95;;;3.90;;
53654;SDS011;39558;52.028;8.536;2023-12-04T06:45:58;6.30;;;4.40;;
53654;SDS011;39558;52.028;8.536;2023-12-04T06:48:24;6.35;;;3.90;;
53654;SDS011;39558;52.028;8.536;2023-12-04T06:50:50;7.18;;;3.90;;
53654;SDS011;39558;52.028;8.536;2023-12-04T06:53:16;8.23;;;4.40;;
53654;SDS011;39558;52.028;8.536;2023-12-04T06:55:42;6.20;;;4.13;;
53654;SDS011;39558;52.028;8.536;2023-12-04T06:58:08;6.13;;;4.00;;
53654;SDS011;39558;52.028;8.536;2023-12-04T07:00:34;5.70;;;4.07;;
53654;SDS011;39558;52.028;8.536;2023-12-04T07:03:00;7.03;;;3.92;;
53654;SDS011;39558;52.028;8.536;2023-12-04T07:05:25;7.57;;;4.20;;
53654;SDS011;39558;52.028;8.536;2023-12-04T07:07:51;6.97;;;4.57;;
53654;SDS011;39558;52.028;8.536;2023-12-04T07:10:17;7.25;;;4.13;;
53654;SDS011;39558;52.028;8.536;2023-12-04T07:12:44;6.03;;;3.83;;
53654;SDS011;39558;52.028;8.536;2023-12-04T07:15:11;6.60;;;3.95;;
53654;SDS011;39558;52.028;8.536;2023-12-04T07:17:37;5.32;;;3.50;;
53654;SDS011;39558;52.028;8.536;2023-12-04T07:20:03;6.70;;;4.15;;
53654;SDS011;39558;52.028;8.536;2023-12-04T07:22:31;6.45;;;3.80;;
53654;SDS011;39558;52.028;8.536;2023-12-04T07:24:57;6.28;;;4.07;;
53654;SDS011;39558;52.028;8.536;2023-12-04T07:27:23;7.13;;;3.65;;
53654;SDS011;39558;52.028;8.536;2023-12-04T07:29:48;6.68;;;4.18;;
53654;SDS011;39558;52.028;8.536;2023-12-04T07:32:14;6.72;;;4.20;;
53654;SDS011;39558;52.028;8.536;2023-12-04T07:34:40;7.38;;;4.25;;
53654;SDS011;39558;52.028;8.536;2023-12-04T07:37:06;5.97;;;3.60;;
53654;SDS011;39558;52.028;8.536;2023-12-04T07:39:32;6.68;;;4.03;;
53654;SDS011;39558;52.028;8.536;2023-12-04T07:41:58;6.32;;;4.00;;
53654;SDS011;39558;52.028;8.536;2023-12-04T07:44:24;5.97;;;3.85;;
53654;SDS011;39558;52.028;8.536;2023-12-04T07:46:50;6.82;;;4.00;;
53654;SDS011;39558;52.028;8.536;2023-12-04T07:49:16;7.32;;;4.47;;
53654;SDS011;39558;52.028;8.536;2023-12-04T07:51:41;6.60;;;4.13;;
53654;SDS011;39558;52.028;8.536;2023-12-04T07:54:07;6.63;;;3.97;;
53654;SDS011;39558;52.028;8.536;2023-12-04T07:56:33;6.63;;;4.03;;
53654;SDS011;39558;52.028;8.536;2023-12-04T07:58:59;8.45;;;4.03;;
53654;SDS011;39558;52.028;8.536;2023-12-04T08:01:25;6.30;;;3.92;;
53654;SDS011;39558;52.028;8.536;2023-12-04T08:03:51;6.53;;;3.45;;
53654;SDS011;39558;52.028;8.536;2023-12-04T08:06:17;5.93;;;4.00;;
53654;SDS011;39558;52.028;8.536;2023-12-04T08:08:44;5.78;;;3.45;;
53654;SDS011;39558;52.028;8.536;2023-12-04T08:11:10;5.75;;;3.17;;
53654;SDS011;39558;52.028;8.536;2023-12-04T08:13:37;5.20;;;3.38;;
53654;SDS011;39558;52.028;8.536;2023-12-04T08:16:03;7.55;;;4.05;;
53654;SDS011;39558;52.028;8.536;2023-12-04T08:18:29;5.95;;;4.00;;
53654;SDS011;39558;52.028;8.536;2023-12-04T08:20:55;6.15;;;3.28;;
53654;SDS011;39558;52.028;8.536;2023-12-04T08:23:21;7.47;;;4.03;;
53654;SDS011;39558;52.028;8.536;2023-12-04T08:25:47;5.72;;;3.70;;
53654;SDS011;39558;52.028;8.536;2023-12-04T08:28:13;5.85;;;3.20;;
53654;SDS011;39558;52.028;8.536;2023-12-04T08:30:39;5.45;;;3.13;;
53654;SDS011;39558;52.028;8.536;2023-12-04T08:33:05;4.80;;;3.00;;
53654;SDS011;39558;52.028;8.536;2023-12-04T08:35:31;6.10;;;3.08;;
53654;SDS011;39558;52.028;8.536;2023-12-04T08:37:57;5.75;;;3.65;;
53654;SDS011;39558;52.028;8.536;2023-12-04T08:40:23;6.75;;;3.65;;
53654;SDS011;39558;52.028;8.536;2023-12-04T08:42:52;5.10;;;3.30;;
53654;SDS011;39558;52.028;8.536;2023-12-04T08:45:18;5.18;;;3.20;;
53654;SDS011;39558;52.028;8.536;2023-12-04T08:47:44;4.95;;;3.00;;
53654;SDS011;39558;52.028;8.536;2023-12-04T08:50:10;5.45;;;3.35;;
53654;SDS011;39558;52.028;8.536;2023-12-04T08:52:36;4.90;;;3.03;;
53654;SDS011;39558;52.028;8.536;2023-12-04T08:55:03;4.55;;;3.05;;
53654;SDS011;39558;52.028;8.536;2023-12-04T08:57:29;5.78;;;3.58;;
53654;SDS011;39558;52.028;8.536;2023-12-04T08:59:55;5.97;;;3.40;;
53654;SDS011;39558;52.028;8.536;2023-12-04T09:02:21;4.70;;;3.00;;
53654;SDS011;39558;52.028;8.536;2023-12-04T09:04:47;5.65;;;3.25;;
53654;SDS011;39558;52.028;8.536;2023-12-04T09:07:13;6.13;;;3.47;;
53654;SDS011;39558;52.028;8.536;2023-12-04T09:09:39;8.85;;;3.42;;
53654;SDS011;39558;52.028;8.536;2023-12-04T09:12:05;5.50;;;3.30;;
53654;SDS011;39558;52.028;8.536;2023-12-04T09:14:32;4.85;;;3.08;;
53654;SDS011;39558;52.028;8.536;2023-12-04T09:16:58;4.45;;;2.65;;
53654;SDS011;39558;52.028;8.536;2023-12-04T09:19:24;4.75;;;2.90;;
53654;SDS011;39558;52.028;8.536;2023-12-04T09:21:50;8.05;;;3.55;;
53654;SDS011;39558;52.028;8.536;2023-12-04T09:24:16;4.55;;;2.78;;
53654;SDS011;39558;52.028;8.536;2023-12-04T09:26:42;4.72;;;3.10;;
53654;SDS011;39558;52.028;8.536;2023-12-04T09:29:08;5.30;;;2.92;;
53654;SDS011;39558;52.028;8.536;2023-12-04T09:31:36;5.97;;;3.35;;
53654;SDS011;39558;52.028;8.536;2023-12-04T09:34:02;5.40;;;3.53;;
53654;SDS011;39558;52.028;8.536;2023-12-04T09:36:28;4.50;;;3.00;;
53654;SDS011;39558;52.028;8.536;2023-12-04T09:38:54;6.32;;;3.13;;
53654;SDS011;39558;52.028;8.536;2023-12-04T09:41:20;5.20;;;3.22;;
53654;SDS011;39558;52.028;8.536;2023-12-04T09:43:46;5.57;;;2.90;;
53654;SDS011;39558;52.028;8.536;2023-12-04T09:46:12;6.72;;;3.05;;
53654;SDS011;39558;52.028;8.536;2023-12-04T09:48:40;5.47;;;2.75;;
53654;SDS011;39558;52.028;8.536;2023-12-04T09:51:08;4.88;;;2.88;;
53654;SDS011;39558;52.028;8.536;2023-12-04T09:53:34;6.57;;;3.22;;
53654;SDS011;39558;52.028;8.536;2023-12-04T09:56:00;4.47;;;2.60;;
53654;SDS011;39558;52.028;8.536;2023-12-04T09:58:28;5.35;;;3.15;;
53654;SDS011;39558;52.028;8.536;2023-12-04T10:00:54;4.47;;;2.50;;
53654;SDS011;39558;52.028;8.536;2023-12-04T10:03:20;4.78;;;2.85;;
53654;SDS011;39558;52.028;8.536;2023-12-04T10:05:46;4.22;;;2.67;;
53654;SDS011;39558;52.028;8.536;2023-12-04T10:08:12;4.45;;;2.55;;
53654;SDS011;39558;52.028;8.536;2023-12-04T10:10:38;4.03;;;2.42;;
53654;SDS011;39558;52.028;8.536;2023-12-04T10:13:05;4.75;;;2.97;;
53654;SDS011;39558;52.028;8.536;2023-12-04T10:15:31;4.57;;;2.78;;
53654;SDS011;39558;52.028;8.536;2023-12-04T10:17:57;4.57;;;3.20;;
53654;SDS011;39558;52.028;8.536;2023-12-04T10:20:23;4.45;;;2.72;;
53654;SDS011;39558;52.028;8.536;2023-12-04T10:25:19;9.02;;;3.20;;
53654;SDS011;39558;52.028;8.536;2023-12-04T10:27:45;5.20;;;2.70;;
53654;SDS011;39558;52.028;8.536;2023-12-04T10:30:29;4.45;;;2.50;;
53654;SDS011;39558;52.028;8.536;2023-12-04T10:33:01;3.65;;;2.08;;
53654;SDS011;39558;52.028;8.536;2023-12-04T10:35:28;4.15;;;2.60;;
53654;SDS011;39558;52.028;8.536;2023-12-04T10:37:55;6.03;;;2.97;;
53654;SDS011;39558;52.028;8.536;2023-12-04T10:40:22;4.80;;;2.47;;
53654;SDS011;39558;52.028;8.536;2023-12-04T10:42:48;4.05;;;2.28;;
53654;SDS011;39558;52.028;8.536;2023-12-04T10:45:14;5.15;;;2.97;;
53654;SDS011;39558;52.028;8.536;2023-12-04T10:47:40;4.63;;;2.70;;
53654;SDS011;39558;52.028;8.536;2023-12-04T10:50:06;5.38;;;3.03;;
53654;SDS011;39558;52.028;8.536;2023-12-04T10:52:32;4.82;;;2.53;;
53654;SDS011;39558;52.028;8.536;2023-12-04T10:54:59;4.57;;;2.50;;
53654;SDS011;39558;52.028;8.536;2023-12-04T10:57:27;6.75;;;2.60;;
53654;SDS011;39558;52.028;8.536;2023-12-04T10:59:56;6.65;;;2.85;;
53654;SDS011;39558;52.028;8.536;2023-12-04T11:02:22;4.88;;;2.53;;
53654;SDS011;39558;52.028;8.536;2023-12-04T11:04:51;11.23;;;3.75;;
53654;SDS011;39558;52.028;8.536;2023-12-04T11:07:19;4.53;;;2.33;;
53654;SDS011;39558;52.028;8.536;2023-12-04T11:09:45;4.70;;;2.42;;
53654;SDS011;39558;52.028;8.536;2023-12-04T11:12:12;6.00;;;2.65;;
53654;SDS011;39558;52.028;8.536;2023-12-04T11:14:44;6.00;;;2.63;;
53654;SDS011;39558;52.028;8.536;2023-12-04T11:17:11;4.65;;;2.60;;
53654;SDS011;39558;52.028;8.536;2023-12-04T11:19:47;4.70;;;2.47;;
53654;SDS011;39558;52.028;8.536;2023-12-04T11:22:15;3.90;;;2.50;;
53654;SDS011;39558;52.028;8.536;2023-12-04T11:24:45;4.63;;;2.38;;
53654;SDS011;39558;52.028;8.536;2023-12-04T11:27:11;4.90;;;2.30;;
53654;SDS011;39558;52.028;8.536;2023-12-04T11:29:37;3.58;;;2.13;;
53654;SDS011;39558;52.028;8.536;2023-12-04T11:32:07;4.20;;;2.20;;
53654;SDS011;39558;52.028;8.536;2023-12-04T11:34:34;4.43;;;2.72;;
53654;SDS011;39558;52.028;8.536;2023-12-04T11:37:01;4.53;;;2.35;;
53654;SDS011;39558;52.028;8.536;2023-12-04T11:39:27;3.83;;;1.80;;
53654;SDS011;39558;52.028;8.536;2023-12-04T11:41:53;4.85;;;2.42;;
53654;SDS011;39558;52.028;8.536;2023-12-04T11:44:19;4.35;;;2.50;;
53654;SDS011;39558;52.028;8.536;2023-12-04T11:47:04;3.97;;;2.22;;
53654;SDS011;39558;52.028;8.536;2023-12-04T11:49:31;3.47;;;2.20;;
53654;SDS011;39558;52.028;8.536;2023-12-04T11:51:58;4.38;;;2.50;;
53654;SDS011;39558;52.028;8.536;2023-12-04T11:54:25;3.08;;;1.90;;
53654;SDS011;39558;52.028;8.536;2023-12-04T11:59:39;4.25;;;2.22;;
53654;SDS011;39558;52.028;8.536;2023-12-04T12:02:08;4.45;;;2.30;;
53654;SDS011;39558;52.028;8.536;2023-12-04T12:04:35;3.72;;;2.17;;
53654;SDS011;39558;52.028;8.536;2023-12-04T12:07:01;4.38;;;2.30;;
53654;SDS011;39558;52.028;8.536;2023-12-04T12:09:32;3.42;;;2.13;;
53654;SDS011;39558;52.028;8.536;2023-12-04T12:12:01;3.53;;;2.03;;
53654;SDS011;39558;52.028;8.536;2023-12-04T12:14:28;4.07;;;2.00;;
53654;SDS011;39558;52.028;8.536;2023-12-04T12:16:54;3.95;;;2.10;;
53654;SDS011;39558;52.028;8.536;2023-12-04T12:19:20;3.75;;;2.10;;
53654;SDS011;39558;52.028;8.536;2023-12-04T12:21:47;3.30;;;2.13;;
53654;SDS011;39558;52.028;8.536;2023-12-04T12:24:14;6.35;;;2.50;;
53654;SDS011;39558;52.028;8.536;2023-12-04T12:26:40;3.88;;;2.30;;
53654;SDS011;39558;52.028;8.536;2023-12-04T12:29:08;2.70;;;1.73;;
53654;SDS011;39558;52.028;8.536;2023-12-04T12:31:34;3.05;;;1.80;;
53654;SDS011;39558;52.028;8.536;2023-12-04T12:34:00;5.70;;;2.10;;
53654;SDS011;39558;52.028;8.536;2023-12-04T12:36:27;3.20;;;1.90;;
53654;SDS011;39558;52.028;8.536;2023-12-04T12:38:53;3.38;;;2.03;;
53654;SDS011;39558;52.028;8.536;2023-12-04T12:41:19;3.33;;;2.13;;
53654;SDS011;39558;52.028;8.536;2023-12-04T12:43:45;3.00;;;1.92;;
53654;SDS011;39558;52.028;8.536;2023-12-04T12:46:12;3.70;;;2.10;;
53654;SDS011;39558;52.028;8.536;2023-12-04T12:48:38;3.53;;;1.80;;
53654;SDS011;39558;52.028;8.536;2023-12-04T12:51:04;5.18;;;2.47;;
53654;SDS011;39558;52.028;8.536;2023-12-04T12:53:34;3.75;;;2.05;;
53654;SDS011;39558;52.028;8.536;2023-12-04T12:56:00;4.80;;;2.10;;
53654;SDS011;39558;52.028;8.536;2023-12-04T12:58:27;3.22;;;1.83;;
53654;SDS011;39558;52.028;8.536;2023-12-04T13:00:53;3.17;;;2.00;;
53654;SDS011;39558;52.028;8.536;2023-12-04T13:03:19;3.40;;;2.00;;
53654;SDS011;39558;52.028;8.536;2023-12-04T13:05:45;3.78;;;2.33;;
53654;SDS011;39558;52.028;8.536;2023-12-04T13:08:11;5.22;;;1.90;;
53654;SDS011;39558;52.028;8.536;2023-12-04T13:10:37;4.00;;;2.13;;
53654;SDS011;39558;52.028;8.536;2023-12-04T13:13:03;3.78;;;1.80;;
53654;SDS011;39558;52.028;8.536;2023-12-04T13:15:29;3.42;;;2.03;;
53654;SDS011;39558;52.028;8.536;2023-12-04T13:17:55;3.20;;;1.90;;
53654;SDS011;39558;52.028;8.536;2023-12-04T13:20:21;3.30;;;1.60;;
53654;SDS011;39558;52.028;8.536;2023-12-04T13:22:48;3.70;;;2.05;;
53654;SDS011;39558;52.028;8.536;2023-12-04T13:25:14;3.60;;;1.98;;
53654;SDS011;39558;52.028;8.536;2023-12-04T13:27:40;3.50;;;2.10;;
53654;SDS011;39558;52.028;8.536;2023-12-04T13:30:07;4.78;;;2.13;;
53654;SDS011;39558;52.028;8.536;2023-12-04T13:32:36;3.90;;;2.03;;
53654;SDS011;39558;52.028;8.536;2023-12-04T13:35:03;4.15;;;2.15;;
53654;SDS011;39558;52.028;8.536;2023-12-04T13:37:29;3.40;;;2.00;;
53654;SDS011;39558;52.028;8.536;2023-12-04T13:39:55;4.20;;;2.00;;
53654;SDS011;39558;52.028;8.536;2023-12-04T13:42:31;2.83;;;1.80;;
53654;SDS011;39558;52.028;8.536;2023-12-04T13:45:15;3.70;;;2.00;;
53654;SDS011;39558;52.028;8.536;2023-12-04T13:47:42;4.07;;;1.95;;
53654;SDS011;39558;52.028;8.536;2023-12-04T13:50:11;3.65;;;1.98;;
53654;SDS011;39558;52.028;8.536;2023-12-04T13:52:37;3.53;;;1.85;;
53654;SDS011;39558;52.028;8.536;2023-12-04T13:55:04;4.68;;;2.20;;
53654;SDS011;39558;52.028;8.536;2023-12-04T13:57:44;3.83;;;2.13;;
53654;SDS011;39558;52.028;8.536;2023-12-04T14:00:30;4.07;;;2.20;;
53654;SDS011;39558;52.028;8.536;2023-12-04T14:02:56;4.05;;;2.22;;
53654;SDS011;39558;52.028;8.536;2023-12-04T14:05:32;4.15;;;2.40;;
53654;SDS011;39558;52.028;8.536;2023-12-04T14:07:58;4.55;;;2.10;;
53654;SDS011;39558;52.028;8.536;2023-12-04T14:10:24;3.80;;;2.25;;
53654;SDS011;39558;52.028;8.536;2023-12-04T14:12:53;4.53;;;2.13;;
53654;SDS011;39558;52.028;8.536;2023-12-04T14:15:19;7.03;;;2.55;;
53654;SDS011;39558;52.028;8.536;2023-12-04T14:17:45;4.13;;;2.03;;
53654;SDS011;39558;52.028;8.536;2023-12-04T14:20:11;4.32;;;2.10;;
53654;SDS011;39558;52.028;8.536;2023-12-04T14:22:41;4.13;;;2.35;;
53654;SDS011;39558;52.028;8.536;2023-12-04T14:25:07;3.35;;;2.15;;
53654;SDS011;39558;52.028;8.536;2023-12-04T14:27:34;4.13;;;2.00;;
53654;SDS011;39558;52.028;8.536;2023-12-04T14:30:00;4.03;;;1.75;;
53654;SDS011;39558;52.028;8.536;2023-12-04T14:32:26;4.18;;;2.00;;
53654;SDS011;39558;52.028;8.536;2023-12-04T14:34:52;3.80;;;2.05;;
53654;SDS011;39558;52.028;8.536;2023-12-04T14:37:19;4.05;;;2.35;;
53654;SDS011;39558;52.028;8.536;2023-12-04T14:39:45;3.55;;;2.13;;
53654;SDS011;39558;52.028;8.536;2023-12-04T14:42:11;4.28;;;2.30;;
53654;SDS011;39558;52.028;8.536;2023-12-04T14:44:37;3.47;;;2.13;;
53654;SDS011;39558;52.028;8.536;2023-12-04T14:47:03;4.30;;;2.22;;
53654;SDS011;39558;52.028;8.536;2023-12-04T14:49:29;3.83;;;2.15;;